Time;durP1;ratioP1;P1;durP2;ratioP2;P2;SDS_P1;SDS_P2;PMS_P1;PMS_P2;Temp;Humidity;BMP_temperature;BMP_pressure;BME280_temperature;BME280_humidity;BME280_pressure;Samples;Min_cycle;Max_cycle;Signal;HPM_P1;HPM_P2
2023/07/16 00:00:53;;;;;;;0.50;0.20;;;;;;;21.43;100.00;99864.16;5073541;28;20477;-49
2023/07/16 00:03:20;;;;;;;0.50;0.20;;;;;;;21.29;100.00;99873.38;5073178;28;20476;-49
2023/07/16 00:05:50;;;;;;;0.50;0.20;;;;;;;21.16;100.00;99892.38;5073241;28;20503;-48
2023/07/16 00:08:17;;;;;;;0.50;0.30;;;;;;;21.52;100.00;99883.22;5073124;28;20497;-48
2023/07/16 00:10:43;;;;;;;0.50;0.20;;;;;;;21.45;100.00;99900.91;5073107;28;20481;-49
2023/07/16 00:13:09;;;;;;;0.50;0.20;;;;;;;21.00;100.00;99898.13;5072879;28;20491;-49
2023/07/16 00:15:36;;;;;;;0.50;0.20;;;;;;;21.19;100.00;99900.25;5073059;28;20503;-49
2023/07/16 00:18:03;;;;;;;0.50;0.20;;;;;;;21.10;100.00;99894.69;5072996;28;20556;-48
2023/07/16 00:20:31;;;;;;;0.50;0.20;;;;;;;21.32;100.00;99894.75;5073381;28;20450;-49
2023/07/16 00:22:58;;;;;;;0.50;0.20;;;;;;;21.21;100.00;99897.41;5073457;28;20545;-48
2023/07/16 00:25:24;;;;;;;0.50;0.30;;;;;;;20.90;100.00;99898.97;5072951;28;20425;-49
2023/07/16 00:27:51;;;;;;;0.50;0.20;;;;;;;21.29;100.00;99906.69;5072532;28;20906;-49
2023/07/16 00:30:17;;;;;;;0.50;0.20;;;;;;;20.95;100.00;99921.94;5073010;28;20445;-48
2023/07/16 00:32:43;;;;;;;0.50;0.20;;;;;;;20.89;100.00;99937.78;5072841;28;20452;-49
2023/07/16 00:35:10;;;;;;;0.50;0.20;;;;;;;21.00;100.00;99938.69;5072722;28;20450;-48
2023/07/16 00:37:37;;;;;;;0.50;0.30;;;;;;;20.80;100.00;99920.41;5072401;28;20535;-48
2023/07/16 00:40:04;;;;;;;0.50;0.20;;;;;;;20.79;100.00;99901.63;5064200;28;20453;-51
2023/07/16 00:42:30;;;;;;;0.50;0.20;;;;;;;20.72;100.00;99886.88;5059707;28;20473;-49
2023/07/16 00:44:57;;;;;;;0.50;0.20;;;;;;;20.70;100.00;99903.22;5072735;28;20493;-49
2023/07/16 00:47:23;;;;;;;0.50;0.20;;;;;;;20.74;100.00;99915.50;5072568;28;20484;-48
2023/07/16 00:49:50;;;;;;;0.50;0.20;;;;;;;20.79;100.00;99924.09;5072541;28;20525;-49
2023/07/16 00:52:19;;;;;;;0.50;0.20;;;;;;;20.54;100.00;99914.31;5072416;28;21008;-49
2023/07/16 00:54:46;;;;;;;0.50;0.20;;;;;;;20.55;100.00;99907.91;5072419;28;20489;-49
2023/07/16 00:57:12;;;;;;;0.50;0.20;;;;;;;20.40;100.00;99896.41;5072314;28;20485;-48
2023/07/16 00:59:39;;;;;;;0.50;0.20;;;;;;;20.49;100.00;99904.84;5072523;28;20548;-49
2023/07/16 01:02:05;;;;;;;0.50;0.20;;;;;;;20.54;100.00;99913.44;5072383;28;20484;-49
2023/07/16 01:04:32;;;;;;;0.50;0.20;;;;;;;20.42;100.00;99917.94;5072065;28;20485;-48
2023/07/16 01:07:03;;;;;;;0.50;0.30;;;;;;;20.40;100.00;99931.50;5071847;28;20493;-48
2023/07/16 01:09:30;;;;;;;0.50;0.20;;;;;;;20.31;100.00;99928.66;5065196;28;20888;-49
2023/07/16 01:11:59;;;;;;;0.50;0.20;;;;;;;20.51;100.00;99936.16;5072366;28;20540;-48
2023/07/16 01:14:27;;;;;;;0.50;0.20;;;;;;;20.42;100.00;99934.13;5072312;28;20464;-49
2023/07/16 01:16:58;;;;;;;0.50;0.20;;;;;;;20.34;100.00;99944.63;5072326;28;20478;-49
2023/07/16 01:19:25;;;;;;;0.50;0.20;;;;;;;20.28;100.00;99945.94;5072064;28;20983;-50
2023/07/16 01:22:07;;;;;;;0.50;0.20;;;;;;;20.12;100.00;99946.19;5072085;28;20488;-48
2023/07/16 01:25:08;;;;;;;0.50;0.20;;;;;;;20.12;100.00;99948.03;5072199;28;20495;-48
2023/07/16 01:27:41;;;;;;;0.50;0.20;;;;;;;20.10;100.00;99947.28;5072006;28;20484;-49
2023/07/16 01:30:09;;;;;;;0.50;0.20;;;;;;;20.10;100.00;99952.69;5071998;28;20584;-49
2023/07/16 01:32:37;;;;;;;0.50;0.20;;;;;;;20.07;100.00;99958.31;5072215;28;20828;-48
2023/07/16 01:35:06;;;;;;;0.50;0.23;;;;;;;20.00;100.00;99952.50;5071976;28;20445;-49
2023/07/16 01:37:33;;;;;;;0.50;0.20;;;;;;;20.01;100.00;99958.75;5070579;28;20496;-49
2023/07/16 01:39:59;;;;;;;0.50;0.30;;;;;;;19.95;100.00;99954.69;5063380;28;20798;-48
2023/07/16 01:42:26;;;;;;;0.50;0.20;;;;;;;20.00;100.00;99954.34;5058600;28;20506;-49
2023/07/16 01:44:52;;;;;;;0.50;0.20;;;;;;;19.86;100.00;99971.53;5071760;28;20541;-48
2023/07/16 01:47:28;;;;;;;0.50;0.20;;;;;;;19.80;100.00;99962.03;5071976;28;20446;-49
2023/07/16 01:49:55;;;;;;;0.50;0.20;;;;;;;19.82;100.00;99970.88;5071930;28;20489;-49
2023/07/16 01:52:22;;;;;;;0.50;0.20;;;;;;;19.79;100.00;99964.84;5071826;28;20462;-49
2023/07/16 01:54:48;;;;;;;0.50;0.20;;;;;;;19.77;100.00;99977.59;5071877;28;20518;-49
2023/07/16 01:57:15;;;;;;;0.50;0.20;;;;;;;19.78;100.00;99976.63;5071783;28;20445;-50
2023/07/16 01:59:41;;;;;;;0.50;0.20;;;;;;;19.63;100.00;99975.03;5071955;28;20544;-49
2023/07/16 02:02:08;;;;;;;0.50;0.20;;;;;;;19.66;100.00;99982.88;5071653;28;20939;-49
2023/07/16 02:04:34;;;;;;;0.50;0.20;;;;;;;19.69;100.00;99982.66;5071739;28;20454;-49
2023/07/16 02:07:01;;;;;;;0.50;0.20;;;;;;;19.62;100.00;99974.16;5071716;28;20520;-49
2023/07/16 02:09:29;;;;;;;0.50;0.20;;;;;;;19.58;100.00;99979.88;5063726;28;20497;-48
2023/07/16 02:11:55;;;;;;;0.50;0.20;;;;;;;19.51;100.00;99990.19;5071535;28;20450;-49
2023/07/16 02:14:22;;;;;;;0.50;0.20;;;;;;;19.54;100.00;99984.59;5071909;28;20448;-48
2023/07/16 02:16:48;;;;;;;0.50;0.20;;;;;;;19.47;100.00;99981.47;5073112;28;20484;-48
2023/07/16 02:19:15;;;;;;;0.50;0.20;;;;;;;19.27;100.00;99991.91;5075400;28;20469;-48
2023/07/16 02:21:41;;;;;;;0.50;0.20;;;;;;;19.26;100.00;99984.78;5075120;28;20456;-49
2023/07/16 02:24:08;;;;;;;0.50;0.20;;;;;;;19.20;100.00;99995.03;5075242;28;20425;-48
2023/07/16 02:26:34;;;;;;;0.50;0.20;;;;;;;19.11;100.00;99995.66;5074975;28;20537;-49
2023/07/16 02:29:01;;;;;;;0.50;0.20;;;;;;;19.04;100.00;99996.16;5075405;28;20580;-48
2023/07/16 02:31:27;;;;;;;0.50;0.30;;;;;;;19.03;100.00;99995.31;5075222;28;20541;-48
2023/07/16 02:33:54;;;;;;;0.50;0.20;;;;;;;18.77;100.00;100006.97;5075224;28;20442;-48
2023/07/16 02:36:20;;;;;;;0.50;0.20;;;;;;;18.74;100.00;100008.06;5074938;28;20506;-50
2023/07/16 02:38:47;;;;;;;0.50;0.20;;;;;;;18.75;100.00;100011.59;5067198;28;20910;-49
2023/07/16 02:41:13;;;;;;;0.50;0.20;;;;;;;18.80;100.00;100020.25;5067923;28;20533;-49
2023/07/16 02:43:40;;;;;;;0.50;0.20;;;;;;;18.77;100.00;100021.31;5068459;28;20947;-48
2023/07/16 02:46:06;;;;;;;0.50;0.20;;;;;;;18.68;100.00;100029.16;5074760;28;20457;-49
2023/07/16 02:48:33;;;;;;;0.50;0.20;;;;;;;18.64;100.00;100021.28;5074669;28;20514;-48
2023/07/16 02:50:59;;;;;;;0.50;0.20;;;;;;;18.60;100.00;100024.22;5074814;28;20484;-48
2023/07/16 02:53:26;;;;;;;0.50;0.20;;;;;;;18.48;100.00;100025.03;5074548;28;20798;-49
2023/07/16 02:55:52;;;;;;;0.50;0.20;;;;;;;18.42;100.00;100028.13;5074875;28;20496;-49
2023/07/16 02:58:19;;;;;;;0.50;0.20;;;;;;;18.21;100.00;100033.94;5074674;28;20504;-48
2023/07/16 03:00:45;;;;;;;0.50;0.20;;;;;;;18.17;100.00;100032.41;5074913;28;20450;-48
2023/07/16 03:03:12;;;;;;;0.50;0.20;;;;;;;18.26;100.00;100039.91;5074789;28;20450;-48
2023/07/16 03:05:38;;;;;;;0.50;0.20;;;;;;;18.17;100.00;100045.00;5074643;28;20499;-49
2023/07/16 03:08:05;;;;;;;0.50;0.20;;;;;;;18.06;100.00;100034.91;5074344;28;20997;-49
2023/07/16 03:10:31;;;;;;;0.50;0.20;;;;;;;18.08;100.00;100050.94;5074623;28;20615;-48
2023/07/16 03:12:58;;;;;;;0.50;0.20;;;;;;;18.05;100.00;100042.13;5074494;28;20520;-49
2023/07/16 03:15:24;;;;;;;0.50;0.20;;;;;;;18.05;100.00;100047.50;5074521;28;20482;-48
2023/07/16 03:17:51;;;;;;;0.50;0.20;;;;;;;18.06;100.00;100051.91;5074213;28;20535;-49
2023/07/16 03:20:17;;;;;;;0.50;0.20;;;;;;;18.28;100.00;100053.25;5074277;28;20446;-48
2023/07/16 03:22:44;;;;;;;0.50;0.20;;;;;;;18.36;100.00;100058.97;5074030;28;20553;-48
2023/07/16 03:25:10;;;;;;;0.50;0.20;;;;;;;18.30;100.00;100062.09;5074388;28;20488;-49
2023/07/16 03:27:37;;;;;;;0.50;0.20;;;;;;;18.37;100.00;100073.34;5073734;28;20531;-48
2023/07/16 03:30:04;;;;;;;0.50;0.20;;;;;;;18.33;100.00;100069.94;5073634;28;20911;-48
2023/07/16 03:32:30;;;;;;;0.50;0.20;;;;;;;18.32;100.00;100069.09;5074078;28;20540;-48
2023/07/16 03:35:17;;;;;;;0.50;0.20;;;;;;;18.25;100.00;100075.84;5073955;28;20473;-48
2023/07/16 03:37:43;;;;;;;0.50;0.20;;;;;;;18.21;100.00;100078.81;5073749;28;20450;-49
2023/07/16 03:40:17;;;;;;;0.50;0.20;;;;;;;18.17;100.00;100071.91;5065095;28;20541;-49
2023/07/16 03:42:44;;;;;;;0.50;0.20;;;;;;;18.12;100.00;100077.59;5060346;28;20446;-48
2023/07/16 03:45:11;;;;;;;0.50;0.20;;;;;;;18.14;100.00;100081.03;5073695;28;20454;-48
2023/07/16 03:47:38;;;;;;;0.50;0.20;;;;;;;18.16;100.00;100078.25;5073347;28;20449;-49
2023/07/16 03:50:05;;;;;;;0.50;0.20;;;;;;;18.20;100.00;100077.94;5073763;28;20489;-48
2023/07/16 03:52:31;;;;;;;0.50;0.20;;;;;;;18.17;100.00;100082.66;5073740;28;20457;-49
2023/07/16 03:54:58;;;;;;;0.50;0.20;;;;;;;18.22;100.00;100076.00;5073787;28;20477;-48
2023/07/16 03:57:24;;;;;;;0.50;0.20;;;;;;;18.34;100.00;100072.53;5073534;28;20495;-50
2023/07/16 03:59:51;;;;;;;0.50;0.20;;;;;;;18.33;100.00;100078.03;5073472;28;20533;-47
2023/07/16 04:02:17;;;;;;;1.33;0.97;;;;;;;18.29;100.00;100084.56;5073100;28;20973;-49
2023/07/16 04:04:44;;;;;;;0.50;0.20;;;;;;;18.33;100.00;100088.78;5073526;28;20499;-48
2023/07/16 04:07:10;;;;;;;0.50;0.20;;;;;;;18.20;100.00;100086.00;5073367;28;20529;-48
2023/07/16 04:09:38;;;;;;;0.50;0.20;;;;;;;18.19;100.00;100092.38;5073041;28;20582;-49
2023/07/16 04:12:06;;;;;;;0.50;0.20;;;;;;;18.06;100.00;100091.41;5073144;28;20454;-48
2023/07/16 04:14:33;;;;;;;0.50;0.20;;;;;;;18.18;100.00;100100.53;5073167;28;20477;-49
2023/07/16 04:16:59;;;;;;;0.50;0.20;;;;;;;18.14;100.00;100101.69;5072893;28;20446;-48
2023/07/16 04:19:26;;;;;;;0.50;0.20;;;;;;;18.11;100.00;100109.97;5073189;28;20557;-48
2023/07/16 04:21:52;;;;;;;0.47;0.20;;;;;;;18.26;100.00;100115.25;5059807;28;20454;-48
2023/07/16 04:24:19;;;;;;;0.50;0.20;;;;;;;18.32;100.00;100113.97;5071538;28;20464;-49
2023/07/16 04:26:45;;;;;;;0.50;0.20;;;;;;;18.30;100.00;100122.16;5066130;28;20474;-49
2023/07/16 04:29:12;;;;;;;0.50;0.20;;;;;;;18.41;100.00;100126.88;5066223;28;20572;-48
2023/07/16 04:31:38;;;;;;;0.50;0.20;;;;;;;18.37;100.00;100127.16;5072992;28;20446;-48
2023/07/16 04:34:05;;;;;;;0.50;0.20;;;;;;;18.35;100.00;100132.63;5072914;28;20541;-49
2023/07/16 04:36:31;;;;;;;0.50;0.20;;;;;;;18.40;100.00;100132.34;5072827;28;20485;-49
2023/07/16 04:38:58;;;;;;;0.50;0.20;;;;;;;18.52;100.00;100134.25;5064040;28;20825;-49
2023/07/16 04:41:24;;;;;;;0.50;0.20;;;;;;;18.69;100.00;100133.22;5064270;28;20990;-49
2023/07/16 04:43:51;;;;;;;0.50;0.20;;;;;;;19.40;100.00;100149.13;5067459;28;20450;-49
2023/07/16 04:46:17;;;;;;;0.50;0.20;;;;;;;20.20;98.14;100150.78;5060901;28;20481;-48
2023/07/16 04:48:44;;;;;;;0.50;0.20;;;;;;;20.86;93.89;100159.59;5072480;28;20470;-48
2023/07/16 04:51:11;;;;;;;0.50;0.20;;;;;;;21.23;93.40;100152.31;5072522;28;20559;-48
2023/07/16 04:53:37;;;;;;;0.50;0.20;;;;;;;21.32;91.17;100164.31;5072324;28;20446;-48
2023/07/16 04:56:04;;;;;;;0.50;0.20;;;;;;;21.86;89.48;100160.09;5072472;28;20445;-48
2023/07/16 04:58:32;;;;;;;0.50;0.20;;;;;;;22.22;88.51;100160.94;5072396;28;20548;-49
2023/07/16 05:00:58;;;;;;;0.50;0.20;;;;;;;22.16;87.80;100169.53;5072574;28;20549;-49
2023/07/16 05:03:24;;;;;;;0.50;0.20;;;;;;;22.34;87.62;100169.94;5071245;28;20482;-49
2023/07/16 05:05:55;;;;;;;0.50;0.20;;;;;;;22.18;87.96;100178.41;5072436;28;20495;-49
2023/07/16 05:08:21;;;;;;;0.50;0.20;;;;;;;22.13;88.84;100173.34;5072209;28;20466;-48
2023/07/16 05:10:48;;;;;;;0.50;0.20;;;;;;;21.91;87.90;100181.38;5072165;28;20517;-49
2023/07/16 05:13:15;;;;;;;0.50;0.20;;;;;;;22.46;87.01;100171.66;5072053;28;21041;-48
2023/07/16 05:15:43;;;;;;;0.50;0.20;;;;;;;22.53;86.56;100182.88;5072175;28;20842;-49
2023/07/16 05:18:10;;;;;;;0.50;0.20;;;;;;;22.86;85.54;100172.06;5071963;28;21021;-48
2023/07/16 05:20:36;;;;;;;0.50;0.20;;;;;;;22.97;83.95;100184.75;5072349;28;20453;-49
2023/07/16 05:23:03;;;;;;;0.50;0.20;;;;;;;22.82;84.36;100188.66;5072125;28;20484;-49
2023/07/16 05:25:30;;;;;;;0.50;0.30;;;;;;;22.94;84.04;100196.69;5071877;28;20445;-49
2023/07/16 05:27:58;;;;;;;0.50;0.20;;;;;;;22.92;84.79;100195.09;5072155;28;20855;-48
2023/07/16 05:30:24;;;;;;;0.50;0.30;;;;;;;22.75;84.75;100191.00;5072208;28;20460;-49
2023/07/16 05:32:51;;;;;;;0.50;0.20;;;;;;;22.94;84.52;100195.84;5072096;28;20499;-49
2023/07/16 05:35:17;;;;;;;0.50;0.30;;;;;;;23.15;82.56;100202.19;5072124;28;20516;-49
2023/07/16 05:37:44;;;;;;;0.50;0.30;;;;;;;23.22;81.81;100211.56;5071898;28;20523;-50
2023/07/16 05:40:11;;;;;;;0.50;0.20;;;;;;;22.88;82.53;100213.44;5063429;28;20471;-49
2023/07/16 05:42:39;;;;;;;0.50;0.20;;;;;;;22.96;81.92;100212.84;5058517;28;20504;-48
2023/07/16 05:45:06;;;;;;;0.50;0.20;;;;;;;23.14;82.46;100219.47;5072148;28;20540;-48
2023/07/16 05:47:32;;;;;;;0.50;0.30;;;;;;;23.53;81.84;100217.16;5071761;28;20431;-48
2023/07/16 05:49:59;;;;;;;0.50;0.30;;;;;;;23.58;80.16;100217.69;5071864;28;20500;-49
2023/07/16 05:52:25;;;;;;;0.50;0.20;;;;;;;23.66;81.00;100222.44;5073961;28;20424;-49
2023/07/16 05:54:52;;;;;;;0.50;0.30;;;;;;;23.38;79.37;100226.56;5075706;28;20463;-49
2023/07/16 05:57:18;;;;;;;0.50;0.20;;;;;;;23.78;78.93;100229.56;5075866;28;20482;-48
2023/07/16 05:59:45;;;;;;;0.50;0.20;;;;;;;23.75;78.77;100227.13;5075600;28;20946;-48
2023/07/16 06:02:11;;;;;;;0.50;0.20;;;;;;;23.40;78.23;100221.88;5075864;28;20520;-49
2023/07/16 06:04:38;;;;;;;0.43;0.20;;;;;;;23.29;78.55;100223.63;5075629;28;20451;-48
2023/07/16 06:07:05;;;;;;;0.50;0.27;;;;;;;23.59;79.10;100224.84;5075492;28;20484;-49
2023/07/16 06:09:31;;;;;;;0.50;0.20;;;;;;;23.77;78.85;100220.56;5075253;28;20966;-49
2023/07/16 06:11:58;;;;;;;0.50;0.20;;;;;;;23.44;78.59;100224.22;5075534;28;20506;-49
2023/07/16 06:14:24;;;;;;;0.50;0.20;;;;;;;23.22;78.59;100230.56;5075493;28;20540;-48
2023/07/16 06:16:52;;;;;;;0.50;0.20;;;;;;;23.76;77.90;100229.69;5075568;28;20489;-49
2023/07/16 06:19:19;;;;;;;0.50;0.30;;;;;;;23.80;78.70;100233.88;5075016;28;20515;-49
2023/07/16 06:21:45;;;;;;;0.50;0.20;;;;;;;23.70;77.25;100226.63;5075269;28;20506;-48
2023/07/16 06:24:11;;;;;;;0.50;0.20;;;;;;;23.72;78.64;100239.09;5074918;28;20470;-50
2023/07/16 06:26:42;;;;;;;0.50;0.20;;;;;;;24.02;77.27;100235.63;5075381;28;20456;-49
2023/07/16 06:29:08;;;;;;;0.50;0.30;;;;;;;23.68;78.25;100234.03;5075093;28;20510;-49
2023/07/16 06:31:35;;;;;;;0.50;0.20;;;;;;;23.55;78.35;100239.59;5075058;28;20516;-48
2023/07/16 06:34:01;;;;;;;0.50;0.23;;;;;;;23.70;75.23;100241.06;5075071;28;20424;-48
2023/07/16 06:36:28;;;;;;;0.50;0.20;;;;;;;23.91;77.00;100230.25;5074896;28;20519;-48
2023/07/16 06:38:54;;;;;;;0.50;0.20;;;;;;;23.57;76.11;100237.59;5066357;28;20867;-48
2023/07/16 06:41:21;;;;;;;0.50;0.30;;;;;;;23.25;78.13;100241.16;5066799;28;20965;-48
2023/07/16 06:43:47;;;;;;;0.50;0.20;;;;;;;23.24;77.71;100247.56;5069740;28;20460;-50
2023/07/16 06:46:14;;;;;;;0.50;0.20;;;;;;;23.78;76.65;100243.13;5074816;28;20475;-48
2023/07/16 06:48:41;;;;;;;0.43;0.20;;;;;;;23.73;75.52;100246.25;5074680;28;20564;-48
2023/07/16 06:51:07;;;;;;;0.50;0.20;;;;;;;23.62;75.27;100249.00;5074593;28;20528;-48
2023/07/16 06:53:34;;;;;;;0.50;0.20;;;;;;;23.87;74.77;100242.38;5074864;28;20864;-48
2023/07/16 06:56:00;;;;;;;0.50;0.20;;;;;;;23.27;74.78;100239.16;5074603;28;20462;-48
2023/07/16 06:58:32;;;;;;;0.50;0.20;;;;;;;23.79;74.18;100245.72;5074425;28;20440;-48
2023/07/16 07:00:59;;;;;;;0.50;0.20;;;;;;;23.83;74.48;100243.59;5074424;28;20463;-48
2023/07/16 07:03:26;;;;;;;0.50;0.20;;;;;;;24.11;73.84;100255.69;5072850;28;20424;-48
2023/07/16 07:05:52;;;;;;;0.50;0.30;;;;;;;23.83;75.26;100249.88;5074601;28;20428;-48
2023/07/16 07:08:19;;;;;;;0.50;0.20;;;;;;;23.53;73.66;100244.28;5074253;28;20506;-48
2023/07/16 07:10:48;;;;;;;0.50;0.20;;;;;;;24.16;74.26;100248.03;5074334;28;20516;-48
2023/07/16 07:13:14;;;;;;;0.50;0.20;;;;;;;23.96;71.74;100251.56;5074200;28;20420;-49
2023/07/16 07:15:41;;;;;;;0.50;0.30;;;;;;;23.87;68.88;100245.09;5074291;28;20601;-49
2023/07/16 07:18:08;;;;;;;0.50;0.20;;;;;;;23.37;70.20;100252.84;5073891;28;20445;-49
2023/07/16 07:20:34;;;;;;;0.50;0.20;;;;;;;23.52;72.71;100256.13;5074486;28;20474;-48
2023/07/16 07:23:03;;;;;;;0.50;0.20;;;;;;;23.39;73.16;100250.88;5074236;28;20545;-50
2023/07/16 07:25:29;;;;;;;0.50;0.30;;;;;;;23.34;71.93;100255.81;5074191;28;20432;-48
2023/07/16 07:27:56;;;;;;;0.93;0.93;;;;;;;23.72;71.13;100249.97;5073952;28;20447;-49
2023/07/16 07:30:22;;;;;;;0.50;0.20;;;;;;;23.79;68.73;100255.72;5073897;28;20989;-48
2023/07/16 07:32:49;;;;;;;0.50;0.20;;;;;;;23.89;71.14;100251.25;5073778;28;20810;-48
2023/07/16 07:35:15;;;;;;;0.50;0.27;;;;;;;23.79;66.56;100248.44;5073867;28;21024;-48
2023/07/16 07:37:41;;;;;;;0.60;0.40;;;;;;;23.67;67.11;100246.75;5073681;28;20416;-49
2023/07/16 07:40:08;;;;;;;0.50;0.30;;;;;;;23.84;65.51;100257.03;5065019;28;20486;-48
2023/07/16 07:42:35;;;;;;;0.50;0.20;;;;;;;23.86;68.30;100257.81;5060408;28;20540;-47
2023/07/16 07:45:01;;;;;;;0.50;0.20;;;;;;;24.00;66.60;100258.47;5073612;28;20905;-48
2023/07/16 07:47:28;;;;;;;0.50;0.23;;;;;;;23.82;65.84;100252.75;5073419;28;20989;-48
2023/07/16 07:49:54;;;;;;;0.50;0.30;;;;;;;24.33;66.31;100250.19;5073508;28;20944;-48
2023/07/16 07:52:21;;;;;;;0.50;0.30;;;;;;;24.20;64.83;100255.78;5073656;28;20862;-47
2023/07/16 07:54:48;;;;;;;0.50;0.30;;;;;;;24.37;65.62;100261.63;5073343;28;20942;-48
2023/07/16 07:57:15;;;;;;;0.50;0.27;;;;;;;24.13;65.88;100261.88;5073316;28;20424;-49
2023/07/16 07:59:44;;;;;;;0.50;0.20;;;;;;;24.08;64.84;100254.09;5073278;28;20440;-48
2023/07/16 08:02:10;;;;;;;0.50;0.20;;;;;;;24.16;64.51;100257.03;5073112;28;20424;-48
2023/07/16 08:04:37;;;;;;;0.50;0.20;;;;;;;24.10;64.93;100248.53;5073153;28;20470;-47
2023/07/16 08:07:03;;;;;;;0.50;0.20;;;;;;;24.30;63.47;100255.88;5073270;28;20446;-47
2023/07/16 08:09:30;;;;;;;0.50;0.30;;;;;;;24.18;62.83;100268.63;5073032;28;20472;-48
2023/07/16 08:11:57;;;;;;;0.50;0.23;;;;;;;24.41;60.28;100253.09;5072839;28;21039;-47
2023/07/16 08:14:23;;;;;;;0.50;0.23;;;;;;;24.33;61.38;100261.03;5072447;28;20504;-47
2023/07/16 08:16:49;;;;;;;0.50;0.30;;;;;;;24.54;62.69;100258.34;5072835;28;20468;-47
2023/07/16 08:19:16;;;;;;;0.50;0.30;;;;;;;24.43;62.89;100261.13;5072851;28;20444;-48
2023/07/16 08:21:43;;;;;;;0.50;0.20;;;;;;;24.86;60.01;100263.66;5073031;28;20513;-47
2023/07/16 08:24:10;;;;;;;0.50;0.30;;;;;;;24.64;59.46;100269.25;5072750;28;20507;-47
2023/07/16 08:26:36;;;;;;;0.50;0.20;;;;;;;24.50;58.09;100271.31;5072831;28;20496;-48
2023/07/16 08:29:03;;;;;;;0.50;0.30;;;;;;;24.95;58.94;100268.28;5072698;28;20480;-48
2023/07/16 08:31:30;;;;;;;0.50;0.40;;;;;;;24.83;58.69;100276.66;5072701;28;20506;-48
2023/07/16 08:33:57;;;;;;;0.50;0.20;;;;;;;25.20;56.66;100268.81;5072895;28;20524;-47
2023/07/16 08:36:25;;;;;;;0.50;0.20;;;;;;;24.83;57.71;100282.97;5072767;28;20922;-48
2023/07/16 08:38:52;;;;;;;0.50;0.27;;;;;;;24.73;58.33;100277.47;5072839;28;20517;-49
2023/07/16 08:41:18;;;;;;;0.50;0.30;;;;;;;24.55;57.93;100272.78;5062006;28;20533;-48
2023/07/16 08:43:49;;;;;;;0.50;0.30;;;;;;;24.94;57.09;100279.28;5072489;28;20462;-48
2023/07/16 08:46:16;;;;;;;0.50;0.30;;;;;;;25.03;56.88;100282.06;5072740;28;20545;-48
2023/07/16 08:48:44;;;;;;;0.50;0.30;;;;;;;25.10;53.86;100276.97;5072585;28;20473;-48
2023/07/16 08:51:14;;;;;;;0.50;0.30;;;;;;;25.00;53.88;100279.63;5072761;28;20468;-49
2023/07/16 08:53:41;;;;;;;0.50;0.20;;;;;;;24.75;54.15;100280.91;5072389;28;20449;-48
2023/07/16 08:56:08;;;;;;;0.50;0.30;;;;;;;24.67;54.95;100285.28;5072888;28;20457;-48
2023/07/16 08:58:37;;;;;;;0.50;0.20;;;;;;;24.98;54.47;100283.47;5072463;28;20829;-48
2023/07/16 09:01:05;;;;;;;0.50;0.30;;;;;;;25.65;52.76;100280.13;5072519;28;20455;-50
2023/07/16 09:03:32;;;;;;;0.50;0.30;;;;;;;25.39;53.04;100280.63;5072412;28;20462;-48
2023/07/16 09:06:02;;;;;;;0.50;0.30;;;;;;;24.99;52.10;100291.47;5072653;28;20503;-48
2023/07/16 09:08:28;;;;;;;0.50;0.20;;;;;;;25.46;52.70;100283.66;5072043;28;20470;-50
2023/07/16 09:10:56;;;;;;;0.50;0.30;;;;;;;25.43;51.80;100281.22;5072136;28;20520;-48
2023/07/16 09:13:27;;;;;;;0.80;0.80;;;;;;;25.51;49.72;100284.13;5072401;28;20428;-48
2023/07/16 09:15:55;;;;;;;0.50;0.30;;;;;;;25.62;50.96;100280.38;5072446;28;20416;-48
2023/07/16 09:18:24;;;;;;;0.50;0.20;;;;;;;25.13;50.95;100276.69;5072085;28;20552;-48
2023/07/16 09:20:58;;;;;;;0.50;0.30;;;;;;;25.27;52.60;100289.91;5072203;28;20925;-49
2023/07/16 09:23:26;;;;;;;0.50;0.20;;;;;;;25.48;52.62;100275.34;5059293;28;20539;-48
2023/07/16 09:25:54;;;;;;;0.50;0.30;;;;;;;25.26;52.03;100290.91;5065825;28;20454;-49
2023/07/16 09:28:21;;;;;;;0.50;0.47;;;;;;;25.37;50.23;100289.94;5071979;28;20440;-49
2023/07/16 09:30:48;;;;;;;0.50;0.30;;;;;;;25.18;49.68;100288.00;5071974;28;20521;-48
2023/07/16 09:33:26;;;;;;;0.50;0.20;;;;;;;24.88;52.22;100296.16;5072005;28;20515;-49
2023/07/16 09:35:52;;;;;;;0.50;0.20;;;;;;;24.89;50.69;100290.56;5072066;28;20950;-49
2023/07/16 09:38:20;;;;;;;0.50;0.20;;;;;;;24.93;51.15;100286.56;5071934;28;20819;-49
2023/07/16 09:40:46;;;;;;;0.50;0.30;;;;;;;25.16;51.27;100283.69;5068932;28;20433;-48
2023/07/16 09:43:13;;;;;;;0.50;0.20;;;;;;;25.69;52.51;100287.91;5051871;28;20482;-48
2023/07/16 09:45:42;;;;;;;0.50;0.30;;;;;;;24.81;50.78;100290.41;5066822;28;20515;-48
2023/07/16 09:48:09;;;;;;;0.50;0.30;;;;;;;25.10;50.41;100294.16;5071784;28;20487;-48
2023/07/16 09:50:38;;;;;;;0.50;0.30;;;;;;;24.97;51.33;100285.31;5071886;28;20453;-49
2023/07/16 09:53:04;;;;;;;0.50;0.23;;;;;;;25.34;50.83;100291.06;5071814;28;20428;-48
2023/07/16 09:55:33;;;;;;;0.50;0.23;;;;;;;25.34;51.23;100292.91;5071773;28;20420;-49
2023/07/16 09:58:02;;;;;;;0.50;0.23;;;;;;;25.10;50.91;100285.97;5071854;28;20473;-49
2023/07/16 10:00:32;;;;;;;0.50;0.30;;;;;;;25.02;52.03;100280.34;5071668;28;20478;-49
2023/07/16 10:02:59;;;;;;;0.50;0.20;;;;;;;25.07;51.93;100285.38;5072117;28;20473;-49
2023/07/16 10:05:28;;;;;;;0.50;0.20;;;;;;;25.26;50.78;100282.75;5071844;28;20450;-49
2023/07/16 10:07:58;;;;;;;0.50;0.30;;;;;;;25.37;49.05;100281.78;5071848;28;20462;-49
2023/07/16 10:10:43;;;;;;;0.50;0.40;;;;;;;25.71;49.47;100284.16;5071750;28;20421;-50
2023/07/16 10:13:12;;;;;;;0.50;0.20;;;;;;;25.72;48.13;100277.72;5071503;28;20416;-49
2023/07/16 10:15:50;;;;;;;0.50;0.23;;;;;;;25.63;47.60;100277.56;5071633;28;21053;-49
2023/07/16 10:18:30;;;;;;;0.50;0.20;;;;;;;25.76;47.26;100277.28;5071650;28;20461;-49
2023/07/16 10:21:23;;;;;;;0.50;0.20;;;;;;;25.98;47.41;100284.34;5071745;28;20416;-49
2023/07/16 10:23:57;;;;;;;0.80;0.80;;;;;;;26.24;45.17;100276.44;5061546;28;20472;-49
2023/07/16 10:26:28;;;;;;;0.50;0.30;;;;;;;25.79;46.78;100263.41;5071566;28;20442;-49
2023/07/16 10:28:55;;;;;;;0.50;0.27;;;;;;;25.89;47.87;100275.16;5072397;28;20492;-49
2023/07/16 10:31:24;;;;;;;0.50;0.30;;;;;;;26.07;46.63;100278.03;5071537;28;20558;-48
2023/07/16 10:34:07;;;;;;;0.50;0.30;;;;;;;25.71;46.13;100281.44;5071482;28;20469;-49
2023/07/16 10:36:40;;;;;;;0.50;0.30;;;;;;;25.19;45.89;100272.53;5058964;28;20988;-49
2023/07/16 10:39:07;;;;;;;0.50;0.20;;;;;;;25.72;45.96;100285.91;5074345;28;20473;-49
2023/07/16 10:41:34;;;;;;;0.50;0.30;;;;;;;25.64;46.25;100282.00;5065575;28;20450;-49
2023/07/16 10:44:01;;;;;;;0.50;0.30;;;;;;;25.98;45.57;100281.63;5057499;28;20455;-49
2023/07/16 10:46:28;;;;;;;0.50;0.20;;;;;;;25.99;45.10;100276.03;5074778;28;20528;-50
2023/07/16 10:48:54;;;;;;;0.50;0.30;;;;;;;25.97;44.31;100274.44;5074849;28;20473;-49
2023/07/16 10:51:27;;;;;;;0.60;0.53;;;;;;;25.68;46.18;100274.41;5074797;28;20528;-49
2023/07/16 10:53:56;;;;;;;0.50;0.30;;;;;;;25.57;46.26;100279.97;5074751;28;20500;-49
2023/07/16 10:56:24;;;;;;;0.50;0.30;;;;;;;25.66;47.16;100271.81;5063797;28;20982;-49
2023/07/16 10:58:51;;;;;;;0.50;0.20;;;;;;;25.80;45.71;100276.03;5072224;28;20476;-49
2023/07/16 11:01:17;;;;;;;0.50;0.30;;;;;;;25.97;46.18;100272.59;5074494;28;20432;-49
2023/07/16 11:03:45;;;;;;;0.50;0.30;;;;;;;25.67;46.79;100276.25;5074665;28;20453;-49
2023/07/16 11:06:11;;;;;;;0.50;0.20;;;;;;;25.74;45.72;100275.72;5074793;28;20491;-49
2023/07/16 11:08:38;;;;;;;0.50;0.30;;;;;;;25.97;46.38;100274.44;5074347;28;20445;-50
2023/07/16 11:11:04;;;;;;;0.50;0.20;;;;;;;25.76;45.99;100277.28;5074328;28;20636;-49
2023/07/16 11:13:31;;;;;;;0.50;0.30;;;;;;;25.54;45.14;100270.22;5074134;28;20496;-49
2023/07/16 11:16:08;;;;;;;0.50;0.30;;;;;;;25.26;45.96;100280.03;5074695;28;20428;-48
2023/07/16 11:18:35;;;;;;;0.50;0.20;;;;;;;25.81;44.62;100269.56;5074205;28;20872;-48
2023/07/16 11:21:03;;;;;;;0.50;0.23;;;;;;;25.90;44.78;100276.00;5073136;28;20490;-50
2023/07/16 11:23:33;;;;;;;0.50;0.30;;;;;;;26.19;45.22;100271.44;5074205;28;20447;-50
2023/07/16 11:26:02;;;;;;;0.50;0.27;;;;;;;26.14;45.13;100271.00;5073954;28;20725;-51